sensor_id;sensor_type;location;lat;lon;timestamp;temperature;humidity
7307;DHT22;3694;48.732;9.248;2023-06-22T00:01:27;19.30;99.90
7307;DHT22;3694;48.732;9.248;2023-06-22T00:03:53;19.30;99.90
7307;DHT22;3694;48.732;9.248;2023-06-22T00:06:19;19.20;99.90
7307;DHT22;3694;48.732;9.248;2023-06-22T00:08:45;19.30;99.90
7307;DHT22;3694;48.732;9.248;2023-06-22T00:11:10;19.30;99.90
7307;DHT22;3694;48.732;9.248;2023-06-22T00:13:37;19.20;99.90
7307;DHT22;3694;48.732;9.248;2023-06-22T00:16:02;19.30;99.90
7307;DHT22;3694;48.732;9.248;2023-06-22T00:18:28;19.30;99.90
7307;DHT22;3694;48.732;9.248;2023-06-22T00:20:56;19.20;99.90
7307;DHT22;3694;48.732;9.248;2023-06-22T00:23:24;19.40;99.90
7307;DHT22;3694;48.732;9.248;2023-06-22T00:25:50;19.40;99.90
7307;DHT22;3694;48.732;9.248;2023-06-22T00:28:16;19.30;99.90
7307;DHT22;3694;48.732;9.248;2023-06-22T00:30:41;19.40;99.90
7307;DHT22;3694;48.732;9.248;2023-06-22T00:33:07;19.40;99.90
7307;DHT22;3694;48.732;9.248;2023-06-22T00:35:33;19.30;99.90
7307;DHT22;3694;48.732;9.248;2023-06-22T00:38:00;19.20;99.90
7307;DHT22;3694;48.732;9.248;2023-06-22T00:40:31;19.20;99.90
7307;DHT22;3694;48.732;9.248;2023-06-22T00:42:57;19.10;99.90
7307;DHT22;3694;48.732;9.248;2023-06-22T00:45:24;19.20;99.90
7307;DHT22;3694;48.732;9.248;2023-06-22T00:47:54;19.10;99.90
7307;DHT22;3694;48.732;9.248;2023-06-22T00:50:22;19.00;99.90
7307;DHT22;3694;48.732;9.248;2023-06-22T00:52:51;19.20;99.90
7307;DHT22;3694;48.732;9.248;2023-06-22T00:55:21;19.30;99.90
7307;DHT22;3694;48.732;9.248;2023-06-22T00:57:47;19.40;99.90
7307;DHT22;3694;48.732;9.248;2023-06-22T01:00:14;19.50;99.90
7307;DHT22;3694;48.732;9.248;2023-06-22T01:02:42;19.40;99.90
7307;DHT22;3694;48.732;9.248;2023-06-22T01:05:13;19.50;99.90
7307;DHT22;3694;48.732;9.248;2023-06-22T01:07:54;19.40;99.90
7307;DHT22;3694;48.732;9.248;2023-06-22T01:10:50;19.30;99.90
7307;DHT22;3694;48.732;9.248;2023-06-22T01:16:22;19.20;99.90
7307;DHT22;3694;48.732;9.248;2023-06-22T01:18:52;19.10;99.90
7307;DHT22;3694;48.732;9.248;2023-06-22T01:21:19;19.10;99.90
7307;DHT22;3694;48.732;9.248;2023-06-22T01:27:09;19.00;99.90
7307;DHT22;3694;48.732;9.248;2023-06-22T01:29:39;19.00;99.90
7307;DHT22;3694;48.732;9.248;2023-06-22T01:32:06;19.10;99.90
7307;DHT22;3694;48.732;9.248;2023-06-22T01:34:33;19.00;99.90
7307;DHT22;3694;48.732;9.248;2023-06-22T01:37:01;19.00;99.90
7307;DHT22;3694;48.732;9.248;2023-06-22T01:39:27;19.10;99.90
7307;DHT22;3694;48.732;9.248;2023-06-22T01:41:53;19.10;99.90
7307;DHT22;3694;48.732;9.248;2023-06-22T01:44:20;19.10;99.90
7307;DHT22;3694;48.732;9.248;2023-06-22T01:46:47;18.90;99.90
7307;DHT22;3694;48.732;9.248;2023-06-22T01:49:14;18.80;99.90
7307;DHT22;3694;48.732;9.248;2023-06-22T01:51:40;18.70;99.90
7307;DHT22;3694;48.732;9.248;2023-06-22T01:54:06;18.60;99.90
7307;DHT22;3694;48.732;9.248;2023-06-22T01:56:33;18.60;99.90
7307;DHT22;3694;48.732;9.248;2023-06-22T01:59:25;18.50;99.90
7307;DHT22;3694;48.732;9.248;2023-06-22T02:02:10;18.40;99.90
7307;DHT22;3694;48.732;9.248;2023-06-22T02:04:47;18.30;99.90
7307;DHT22;3694;48.732;9.248;2023-06-22T02:07:15;18.30;99.90
7307;DHT22;3694;48.732;9.248;2023-06-22T02:09:44;18.50;99.90
7307;DHT22;3694;48.732;9.248;2023-06-22T02:12:12;18.30;99.90
7307;DHT22;3694;48.732;9.248;2023-06-22T02:14:39;18.20;99.90
7307;DHT22;3694;48.732;9.248;2023-06-22T02:17:07;18.10;99.90
7307;DHT22;3694;48.732;9.248;2023-06-22T02:19:37;18.10;99.90
7307;DHT22;3694;48.732;9.248;2023-06-22T02:22:04;18.10;99.90
7307;DHT22;3694;48.732;9.248;2023-06-22T02:24:30;18.10;99.90
7307;DHT22;3694;48.732;9.248;2023-06-22T02:27:01;18.10;99.90
7307;DHT22;3694;48.732;9.248;2023-06-22T02:29:28;18.10;99.90
7307;DHT22;3694;48.732;9.248;2023-06-22T02:31:54;18.10;99.90
7307;DHT22;3694;48.732;9.248;2023-06-22T02:34:21;18.00;99.90
7307;DHT22;3694;48.732;9.248;2023-06-22T02:36:47;18.00;99.90
7307;DHT22;3694;48.732;9.248;2023-06-22T02:39:20;17.90;99.90
7307;DHT22;3694;48.732;9.248;2023-06-22T02:41:48;17.80;99.90
7307;DHT22;3694;48.732;9.248;2023-06-22T02:44:14;17.80;99.90
7307;DHT22;3694;48.732;9.248;2023-06-22T02:46:40;17.90;99.90
7307;DHT22;3694;48.732;9.248;2023-06-22T02:49:06;17.80;99.90
7307;DHT22;3694;48.732;9.248;2023-06-22T02:51:33;17.70;99.90
7307;DHT22;3694;48.732;9.248;2023-06-22T02:54:02;17.60;99.90
7307;DHT22;3694;48.732;9.248;2023-06-22T02:56:28;17.60;99.90
7307;DHT22;3694;48.732;9.248;2023-06-22T02:58:56;17.50;99.90
7307;DHT22;3694;48.732;9.248;2023-06-22T03:01:27;17.40;99.90
7307;DHT22;3694;48.732;9.248;2023-06-22T03:03:56;17.30;99.90
7307;DHT22;3694;48.732;9.248;2023-06-22T03:06:22;17.40;99.90
7307;DHT22;3694;48.732;9.248;2023-06-22T03:08:49;17.30;99.90
7307;DHT22;3694;48.732;9.248;2023-06-22T03:11:15;17.30;99.90
7307;DHT22;3694;48.732;9.248;2023-06-22T03:13:40;17.40;99.90
7307;DHT22;3694;48.732;9.248;2023-06-22T03:16:06;17.20;99.90
7307;DHT22;3694;48.732;9.248;2023-06-22T03:18:31;17.10;99.90
7307;DHT22;3694;48.732;9.248;2023-06-22T03:20:57;17.00;99.90
7307;DHT22;3694;48.732;9.248;2023-06-22T03:23:23;17.00;99.90
7307;DHT22;3694;48.732;9.248;2023-06-22T03:25:48;17.00;99.90
7307;DHT22;3694;48.732;9.248;2023-06-22T03:28:14;17.10;99.90
7307;DHT22;3694;48.732;9.248;2023-06-22T03:30:39;17.20;99.90
7307;DHT22;3694;48.732;9.248;2023-06-22T03:33:05;17.20;99.90
7307;DHT22;3694;48.732;9.248;2023-06-22T03:35:30;17.40;99.90
7307;DHT22;3694;48.732;9.248;2023-06-22T03:37:56;17.40;99.90
7307;DHT22;3694;48.732;9.248;2023-06-22T03:40:21;17.40;99.90
7307;DHT22;3694;48.732;9.248;2023-06-22T03:42:47;17.50;99.90
7307;DHT22;3694;48.732;9.248;2023-06-22T03:45:13;17.40;99.90
7307;DHT22;3694;48.732;9.248;2023-06-22T03:47:38;17.60;99.90
7307;DHT22;3694;48.732;9.248;2023-06-22T03:50:04;17.40;99.90
7307;DHT22;3694;48.732;9.248;2023-06-22T03:52:31;17.50;99.90
7307;DHT22;3694;48.732;9.248;2023-06-22T03:54:56;17.60;99.90
7307;DHT22;3694;48.732;9.248;2023-06-22T03:57:22;17.50;99.90
7307;DHT22;3694;48.732;9.248;2023-06-22T03:59:48;17.50;99.90
7307;DHT22;3694;48.732;9.248;2023-06-22T04:02:13;17.60;99.90
7307;DHT22;3694;48.732;9.248;2023-06-22T04:04:39;17.60;99.90
7307;DHT22;3694;48.732;9.248;2023-06-22T04:07:05;17.70;99.90
7307;DHT22;3694;48.732;9.248;2023-06-22T04:09:30;17.80;99.90
7307;DHT22;3694;48.732;9.248;2023-06-22T04:11:56;17.90;99.90
7307;DHT22;3694;48.732;9.248;2023-06-22T04:14:21;18.00;99.90
7307;DHT22;3694;48.732;9.248;2023-06-22T04:16:48;18.10;99.90
7307;DHT22;3694;48.732;9.248;2023-06-22T04:19:13;18.10;99.90
7307;DHT22;3694;48.732;9.248;2023-06-22T04:21:43;18.30;99.90
7307;DHT22;3694;48.732;9.248;2023-06-22T04:24:10;18.40;99.90
7307;DHT22;3694;48.732;9.248;2023-06-22T04:26:35;18.60;99.90
7307;DHT22;3694;48.732;9.248;2023-06-22T04:29:03;18.70;99.90
7307;DHT22;3694;48.732;9.248;2023-06-22T04:31:31;19.00;99.90
7307;DHT22;3694;48.732;9.248;2023-06-22T04:33:57;19.00;99.90
7307;DHT22;3694;48.732;9.248;2023-06-22T04:36:31;19.10;99.90
7307;DHT22;3694;48.732;9.248;2023-06-22T04:39:07;19.30;99.90
7307;DHT22;3694;48.732;9.248;2023-06-22T04:41:38;19.40;99.90
7307;DHT22;3694;48.732;9.248;2023-06-22T04:44:17;19.50;99.90
7307;DHT22;3694;48.732;9.248;2023-06-22T04:46:52;19.70;99.90
7307;DHT22;3694;48.732;9.248;2023-06-22T04:49:20;19.80;99.90
7307;DHT22;3694;48.732;9.248;2023-06-22T04:51:46;20.00;99.90
7307;DHT22;3694;48.732;9.248;2023-06-22T04:54:12;20.30;99.90
7307;DHT22;3694;48.732;9.248;2023-06-22T04:56:38;20.20;99.90
7307;DHT22;3694;48.732;9.248;2023-06-22T04:59:07;20.30;99.90
7307;DHT22;3694;48.732;9.248;2023-06-22T05:01:33;20.50;99.90
7307;DHT22;3694;48.732;9.248;2023-06-22T05:04:00;20.50;99.90
7307;DHT22;3694;48.732;9.248;2023-06-22T05:06:27;20.70;99.90
7307;DHT22;3694;48.732;9.248;2023-06-22T05:08:57;20.80;99.90
7307;DHT22;3694;48.732;9.248;2023-06-22T05:11:27;21.00;99.90
7307;DHT22;3694;48.732;9.248;2023-06-22T05:13:53;21.20;99.90
7307;DHT22;3694;48.732;9.248;2023-06-22T05:16:20;21.60;99.90
7307;DHT22;3694;48.732;9.248;2023-06-22T05:18:53;22.10;99.90
7307;DHT22;3694;48.732;9.248;2023-06-22T05:21:26;22.70;99.90
7307;DHT22;3694;48.732;9.248;2023-06-22T05:23:52;23.10;99.90
7307;DHT22;3694;48.732;9.248;2023-06-22T05:26:20;22.90;99.90
7307;DHT22;3694;48.732;9.248;2023-06-22T05:28:46;22.70;99.90
7307;DHT22;3694;48.732;9.248;2023-06-22T05:31:16;22.50;99.90
7307;DHT22;3694;48.732;9.248;2023-06-22T05:33:42;22.80;99.90
7307;DHT22;3694;48.732;9.248;2023-06-22T05:36:08;23.30;99.90
7307;DHT22;3694;48.732;9.248;2023-06-22T05:38:34;23.80;99.90
7307;DHT22;3694;48.732;9.248;2023-06-22T05:41:00;24.50;99.90
7307;DHT22;3694;48.732;9.248;2023-06-22T05:43:25;25.20;99.00
7307;DHT22;3694;48.732;9.248;2023-06-22T05:45:51;25.60;98.20
7307;DHT22;3694;48.732;9.248;2023-06-22T05:48:16;25.70;97.40
7307;DHT22;3694;48.732;9.248;2023-06-22T05:50:42;26.10;97.50
7307;DHT22;3694;48.732;9.248;2023-06-22T05:53:08;25.90;96.60
7307;DHT22;3694;48.732;9.248;2023-06-22T05:55:33;25.90;96.50
7307;DHT22;3694;48.732;9.248;2023-06-22T05:57:59;26.20;96.90
7307;DHT22;3694;48.732;9.248;2023-06-22T06:00:25;26.60;96.50
7307;DHT22;3694;48.732;9.248;2023-06-22T06:02:50;27.10;96.20
7307;DHT22;3694;48.732;9.248;2023-06-22T06:05:16;27.50;95.50
7307;DHT22;3694;48.732;9.248;2023-06-22T06:07:45;28.10;94.30
7307;DHT22;3694;48.732;9.248;2023-06-22T06:10:11;28.20;93.70
7307;DHT22;3694;48.732;9.248;2023-06-22T06:12:37;28.00;92.50
7307;DHT22;3694;48.732;9.248;2023-06-22T06:15:04;27.80;92.40
7307;DHT22;3694;48.732;9.248;2023-06-22T06:17:30;27.80;92.60
7307;DHT22;3694;48.732;9.248;2023-06-22T06:19:55;27.80;92.50
7307;DHT22;3694;48.732;9.248;2023-06-22T06:22:21;27.70;93.50
7307;DHT22;3694;48.732;9.248;2023-06-22T06:24:48;27.50;92.40
7307;DHT22;3694;48.732;9.248;2023-06-22T06:27:14;27.20;92.30
7307;DHT22;3694;48.732;9.248;2023-06-22T06:29:40;27.20;92.60
7307;DHT22;3694;48.732;9.248;2023-06-22T06:32:05;27.40;92.60
7307;DHT22;3694;48.732;9.248;2023-06-22T06:34:31;27.90;92.30
7307;DHT22;3694;48.732;9.248;2023-06-22T06:36:57;28.50;91.40
7307;DHT22;3694;48.732;9.248;2023-06-22T06:39:23;29.30;90.30
7307;DHT22;3694;48.732;9.248;2023-06-22T06:41:48;29.30;91.10
7307;DHT22;3694;48.732;9.248;2023-06-22T06:44:14;29.70;87.60
7307;DHT22;3694;48.732;9.248;2023-06-22T06:46:39;30.10;87.70
7307;DHT22;3694;48.732;9.248;2023-06-22T06:49:05;30.30;86.30
7307;DHT22;3694;48.732;9.248;2023-06-22T06:51:31;30.50;84.80
7307;DHT22;3694;48.732;9.248;2023-06-22T06:53:56;30.30;83.80
7307;DHT22;3694;48.732;9.248;2023-06-22T06:56:22;30.40;84.20
7307;DHT22;3694;48.732;9.248;2023-06-22T06:58:50;30.50;84.20
7307;DHT22;3694;48.732;9.248;2023-06-22T07:01:15;30.70;82.50
7307;DHT22;3694;48.732;9.248;2023-06-22T07:03:41;30.70;82.10
7307;DHT22;3694;48.732;9.248;2023-06-22T07:06:07;31.30;81.40
7307;DHT22;3694;48.732;9.248;2023-06-22T07:08:33;31.20;81.70
7307;DHT22;3694;48.732;9.248;2023-06-22T07:11:00;30.80;81.60
7307;DHT22;3694;48.732;9.248;2023-06-22T07:13:26;30.80;80.30
7307;DHT22;3694;48.732;9.248;2023-06-22T07:15:51;31.00;81.30
7307;DHT22;3694;48.732;9.248;2023-06-22T07:18:17;30.90;81.20
7307;DHT22;3694;48.732;9.248;2023-06-22T07:20:42;31.10;80.40
7307;DHT22;3694;48.732;9.248;2023-06-22T07:23:08;31.20;79.90
7307;DHT22;3694;48.732;9.248;2023-06-22T07:25:34;30.90;79.30
7307;DHT22;3694;48.732;9.248;2023-06-22T07:28:01;31.10;77.90
7307;DHT22;3694;48.732;9.248;2023-06-22T07:30:29;31.20;78.30
7307;DHT22;3694;48.732;9.248;2023-06-22T07:32:54;31.40;78.10
7307;DHT22;3694;48.732;9.248;2023-06-22T07:35:20;31.20;77.20
7307;DHT22;3694;48.732;9.248;2023-06-22T07:37:46;31.00;78.00
7307;DHT22;3694;48.732;9.248;2023-06-22T07:40:12;31.00;77.60
7307;DHT22;3694;48.732;9.248;2023-06-22T07:42:37;31.00;76.90
7307;DHT22;3694;48.732;9.248;2023-06-22T07:45:03;30.90;76.90
7307;DHT22;3694;48.732;9.248;2023-06-22T07:47:30;30.90;78.90
7307;DHT22;3694;48.732;9.248;2023-06-22T07:49:58;31.20;77.50
7307;DHT22;3694;48.732;9.248;2023-06-22T07:52:24;31.40;76.60
7307;DHT22;3694;48.732;9.248;2023-06-22T07:54:51;31.50;76.00
7307;DHT22;3694;48.732;9.248;2023-06-22T07:57:16;31.70;76.00
7307;DHT22;3694;48.732;9.248;2023-06-22T07:59:42;31.60;76.60
7307;DHT22;3694;48.732;9.248;2023-06-22T08:02:07;31.80;75.50
7307;DHT22;3694;48.732;9.248;2023-06-22T08:04:34;32.10;74.20
7307;DHT22;3694;48.732;9.248;2023-06-22T08:07:00;31.90;74.60
7307;DHT22;3694;48.732;9.248;2023-06-22T08:09:28;32.20;75.00
7307;DHT22;3694;48.732;9.248;2023-06-22T08:11:54;32.50;71.90
7307;DHT22;3694;48.732;9.248;2023-06-22T08:14:22;32.70;73.20
7307;DHT22;3694;48.732;9.248;2023-06-22T08:16:48;32.30;74.10
7307;DHT22;3694;48.732;9.248;2023-06-22T08:19:13;32.30;74.00
7307;DHT22;3694;48.732;9.248;2023-06-22T08:21:39;32.90;74.30
7307;DHT22;3694;48.732;9.248;2023-06-22T08:24:05;32.70;72.10
7307;DHT22;3694;48.732;9.248;2023-06-22T08:26:30;32.40;72.40
7307;DHT22;3694;48.732;9.248;2023-06-22T08:28:58;32.20;72.90
7307;DHT22;3694;48.732;9.248;2023-06-22T08:31:24;32.00;74.10
7307;DHT22;3694;48.732;9.248;2023-06-22T08:33:49;32.10;74.10
7307;DHT22;3694;48.732;9.248;2023-06-22T08:36:15;32.70;72.60
7307;DHT22;3694;48.732;9.248;2023-06-22T08:38:41;33.50;72.90
7307;DHT22;3694;48.732;9.248;2023-06-22T08:41:07;33.70;71.20
7307;DHT22;3694;48.732;9.248;2023-06-22T08:43:33;34.30;71.70
7307;DHT22;3694;48.732;9.248;2023-06-22T08:45:59;34.50;69.60
7307;DHT22;3694;48.732;9.248;2023-06-22T08:48:24;34.30;69.70
7307;DHT22;3694;48.732;9.248;2023-06-22T08:50:50;33.90;70.10
7307;DHT22;3694;48.732;9.248;2023-06-22T08:53:15;33.20;69.00
7307;DHT22;3694;48.732;9.248;2023-06-22T08:55:41;32.80;69.60
7307;DHT22;3694;48.732;9.248;2023-06-22T08:58:06;32.20;69.00
7307;DHT22;3694;48.732;9.248;2023-06-22T09:00:32;32.20;70.80
7307;DHT22;3694;48.732;9.248;2023-06-22T09:03:01;32.20;71.60
7307;DHT22;3694;48.732;9.248;2023-06-22T09:05:27;32.50;70.80
7307;DHT22;3694;48.732;9.248;2023-06-22T09:07:53;33.20;70.20
7307;DHT22;3694;48.732;9.248;2023-06-22T09:10:20;33.50;70.30
7307;DHT22;3694;48.732;9.248;2023-06-22T09:12:46;33.50;70.80
7307;DHT22;3694;48.732;9.248;2023-06-22T09:15:11;33.10;69.10
7307;DHT22;3694;48.732;9.248;2023-06-22T09:17:37;33.00;70.10
7307;DHT22;3694;48.732;9.248;2023-06-22T09:20:03;32.80;68.60
7307;DHT22;3694;48.732;9.248;2023-06-22T09:22:31;33.50;69.00
7307;DHT22;3694;48.732;9.248;2023-06-22T09:24:57;34.00;70.00
7307;DHT22;3694;48.732;9.248;2023-06-22T09:27:23;33.80;69.40
7307;DHT22;3694;48.732;9.248;2023-06-22T09:29:49;34.00;70.60
7307;DHT22;3694;48.732;9.248;2023-06-22T09:32:15;33.90;67.30
7307;DHT22;3694;48.732;9.248;2023-06-22T09:34:41;33.60;68.20
7307;DHT22;3694;48.732;9.248;2023-06-22T09:37:07;33.70;67.70
7307;DHT22;3694;48.732;9.248;2023-06-22T09:39:32;33.50;68.80
7307;DHT22;3694;48.732;9.248;2023-06-22T09:42:01;33.70;69.90
7307;DHT22;3694;48.732;9.248;2023-06-22T09:44:26;33.80;71.30
7307;DHT22;3694;48.732;9.248;2023-06-22T09:46:53;33.80;70.40
7307;DHT22;3694;48.732;9.248;2023-06-22T09:49:18;34.30;68.50
7307;DHT22;3694;48.732;9.248;2023-06-22T09:51:44;34.10;68.00
7307;DHT22;3694;48.732;9.248;2023-06-22T09:54:09;33.50;70.20
7307;DHT22;3694;48.732;9.248;2023-06-22T09:56:35;32.80;68.30
7307;DHT22;3694;48.732;9.248;2023-06-22T09:59:02;33.00;69.10
7307;DHT22;3694;48.732;9.248;2023-06-22T10:01:28;33.40;70.50
7307;DHT22;3694;48.732;9.248;2023-06-22T10:03:54;33.70;67.40
7307;DHT22;3694;48.732;9.248;2023-06-22T10:06:23;33.90;68.80
7307;DHT22;3694;48.732;9.248;2023-06-22T10:08:50;34.10;69.00
7307;DHT22;3694;48.732;9.248;2023-06-22T10:11:16;34.30;67.00
7307;DHT22;3694;48.732;9.248;2023-06-22T10:13:42;34.10;67.60
7307;DHT22;3694;48.732;9.248;2023-06-22T10:16:07;34.00;66.10
7307;DHT22;3694;48.732;9.248;2023-06-22T10:18:33;33.50;68.70
7307;DHT22;3694;48.732;9.248;2023-06-22T10:20:58;33.40;68.40
7307;DHT22;3694;48.732;9.248;2023-06-22T10:23:24;33.00;68.60
7307;DHT22;3694;48.732;9.248;2023-06-22T10:25:49;33.50;68.10
7307;DHT22;3694;48.732;9.248;2023-06-22T10:28:15;33.50;69.40
7307;DHT22;3694;48.732;9.248;2023-06-22T10:30:41;33.50;66.80
7307;DHT22;3694;48.732;9.248;2023-06-22T10:33:10;34.00;68.00
7307;DHT22;3694;48.732;9.248;2023-06-22T10:35:36;33.80;67.90
7307;DHT22;3694;48.732;9.248;2023-06-22T10:38:05;33.30;67.60
7307;DHT22;3694;48.732;9.248;2023-06-22T10:40:31;33.10;67.80
7307;DHT22;3694;48.732;9.248;2023-06-22T10:42:57;33.50;67.90
7307;DHT22;3694;48.732;9.248;2023-06-22T10:45:22;33.80;67.90
7307;DHT22;3694;48.732;9.248;2023-06-22T10:47:48;33.60;67.10
7307;DHT22;3694;48.732;9.248;2023-06-22T10:50:15;33.60;68.90
7307;DHT22;3694;48.732;9.248;2023-06-22T10:52:40;33.60;69.20
7307;DHT22;3694;48.732;9.248;2023-06-22T10:55:09;33.40;69.00
7307;DHT22;3694;48.732;9.248;2023-06-22T10:57:35;33.30;68.20
7307;DHT22;3694;48.732;9.248;2023-06-22T11:00:02;33.00;67.70
7307;DHT22;3694;48.732;9.248;2023-06-22T11:02:31;32.90;68.00
7307;DHT22;3694;48.732;9.248;2023-06-22T11:04:56;32.60;70.20
7307;DHT22;3694;48.732;9.248;2023-06-22T11:07:22;32.50;69.60
7307;DHT22;3694;48.732;9.248;2023-06-22T11:09:47;32.40;69.70
7307;DHT22;3694;48.732;9.248;2023-06-22T11:12:13;32.50;69.50
7307;DHT22;3694;48.732;9.248;2023-06-22T11:14:39;32.60;70.40
7307;DHT22;3694;48.732;9.248;2023-06-22T11:17:04;32.70;69.60
7307;DHT22;3694;48.732;9.248;2023-06-22T11:19:30;33.00;70.80
7307;DHT22;3694;48.732;9.248;2023-06-22T11:21:56;32.80;69.20
7307;DHT22;3694;48.732;9.248;2023-06-22T11:24:22;33.00;68.40
7307;DHT22;3694;48.732;9.248;2023-06-22T11:26:47;32.90;68.20
7307;DHT22;3694;48.732;9.248;2023-06-22T11:29:13;32.90;69.60
7307;DHT22;3694;48.732;9.248;2023-06-22T11:31:38;32.90;69.40
7307;DHT22;3694;48.732;9.248;2023-06-22T11:34:04;33.00;67.20
7307;DHT22;3694;48.732;9.248;2023-06-22T11:36:30;33.10;69.20
7307;DHT22;3694;48.732;9.248;2023-06-22T11:38:58;33.20;68.50
7307;DHT22;3694;48.732;9.248;2023-06-22T11:41:24;33.20;67.20
7307;DHT22;3694;48.732;9.248;2023-06-22T11:43:49;33.40;68.20
7307;DHT22;3694;48.732;9.248;2023-06-22T11:46:15;33.60;67.70
7307;DHT22;3694;48.732;9.248;2023-06-22T11:48:40;33.90;69.00
7307;DHT22;3694;48.732;9.248;2023-06-22T11:51:06;34.40;69.90
7307;DHT22;3694;48.732;9.248;2023-06-22T11:53:34;34.40;67.50
7307;DHT22;3694;48.732;9.248;2023-06-22T11:56:01;33.80;67.20
7307;DHT22;3694;48.732;9.248;2023-06-22T11:58:26;33.60;66.30
7307;DHT22;3694;48.732;9.248;2023-06-22T12:00:52;33.40;66.90
7307;DHT22;3694;48.732;9.248;2023-06-22T12:03:18;33.30;70.10
7307;DHT22;3694;48.732;9.248;2023-06-22T12:05:44;33.70;70.50
7307;DHT22;3694;48.732;9.248;2023-06-22T12:08:09;34.10;68.50
7307;DHT22;3694;48.732;9.248;2023-06-22T12:10:35;34.30;66.90
7307;DHT22;3694;48.732;9.248;2023-06-22T12:13:00;34.40;66.50
7307;DHT22;3694;48.732;9.248;2023-06-22T12:15:27;34.10;66.50
7307;DHT22;3694;48.732;9.248;2023-06-22T12:17:52;33.60;66.80
7307;DHT22;3694;48.732;9.248;2023-06-22T12:20:18;33.60;67.60
7307;DHT22;3694;48.732;9.248;2023-06-22T12:22:44;33.70;66.70
7307;DHT22;3694;48.732;9.248;2023-06-22T12:25:10;33.40;67.90
7307;DHT22;3694;48.732;9.248;2023-06-22T12:27:36;33.10;67.00
7307;DHT22;3694;48.732;9.248;2023-06-22T12:30:03;33.10;66.30
7307;DHT22;3694;48.732;9.248;2023-06-22T12:32:29;33.00;67.50
7307;DHT22;3694;48.732;9.248;2023-06-22T12:34:56;32.90;67.60
7307;DHT22;3694;48.732;9.248;2023-06-22T12:37:22;32.80;67.40
7307;DHT22;3694;48.732;9.248;2023-06-22T12:39:48;32.40;68.40
7307;DHT22;3694;48.732;9.248;2023-06-22T12:42:15;32.10;68.70
7307;DHT22;3694;48.732;9.248;2023-06-22T12:44:41;32.00;67.40
7307;DHT22;3694;48.732;9.248;2023-06-22T12:47:07;31.60;67.90
7307;DHT22;3694;48.732;9.248;2023-06-22T12:49:34;31.50;68.60
7307;DHT22;3694;48.732;9.248;2023-06-22T12:52:00;31.40;68.80
7307;DHT22;3694;48.732;9.248;2023-06-22T12:54:26;31.20;69.80
7307;DHT22;3694;48.732;9.248;2023-06-22T12:56:51;31.20;71.50
7307;DHT22;3694;48.732;9.248;2023-06-22T12:59:17;31.40;72.00
7307;DHT22;3694;48.732;9.248;2023-06-22T13:01:43;31.30;70.00
7307;DHT22;3694;48.732;9.248;2023-06-22T13:04:11;31.50;71.70
7307;DHT22;3694;48.732;9.248;2023-06-22T13:06:42;31.60;71.80
7307;DHT22;3694;48.732;9.248;2023-06-22T13:09:10;31.70;70.40
7307;DHT22;3694;48.732;9.248;2023-06-22T13:11:35;31.90;72.20
7307;DHT22;3694;48.732;9.248;2023-06-22T13:14:01;31.80;72.00
7307;DHT22;3694;48.732;9.248;2023-06-22T13:16:27;31.90;70.60
7307;DHT22;3694;48.732;9.248;2023-06-22T13:18:52;31.90;69.50
7307;DHT22;3694;48.732;9.248;2023-06-22T13:21:18;31.90;69.80
7307;DHT22;3694;48.732;9.248;2023-06-22T13:23:43;32.00;70.70
7307;DHT22;3694;48.732;9.248;2023-06-22T13:26:09;32.20;70.50
7307;DHT22;3694;48.732;9.248;2023-06-22T13:28:34;32.60;72.00
7307;DHT22;3694;48.732;9.248;2023-06-22T13:31:00;33.00;70.30
7307;DHT22;3694;48.732;9.248;2023-06-22T13:33:25;33.00;68.80
7307;DHT22;3694;48.732;9.248;2023-06-22T13:35:51;33.00;70.90
7307;DHT22;3694;48.732;9.248;2023-06-22T13:38:16;32.70;65.80
7307;DHT22;3694;48.732;9.248;2023-06-22T13:40:42;32.60;66.60
7307;DHT22;3694;48.732;9.248;2023-06-22T13:43:08;32.60;68.30
7307;DHT22;3694;48.732;9.248;2023-06-22T13:45:34;32.60;66.80
7307;DHT22;3694;48.732;9.248;2023-06-22T13:47:59;32.60;67.00
7307;DHT22;3694;48.732;9.248;2023-06-22T13:50:25;32.70;69.30
7307;DHT22;3694;48.732;9.248;2023-06-22T13:52:51;32.80;66.80
7307;DHT22;3694;48.732;9.248;2023-06-22T13:55:16;32.80;66.80
7307;DHT22;3694;48.732;9.248;2023-06-22T13:57:42;32.70;66.40
7307;DHT22;3694;48.732;9.248;2023-06-22T14:00:09;32.70;68.60
7307;DHT22;3694;48.732;9.248;2023-06-22T14:02:34;32.90;67.90
7307;DHT22;3694;48.732;9.248;2023-06-22T14:05:00;33.10;67.90
7307;DHT22;3694;48.732;9.248;2023-06-22T14:07:25;33.20;66.60
7307;DHT22;3694;48.732;9.248;2023-06-22T14:09:51;33.50;69.40
7307;DHT22;3694;48.732;9.248;2023-06-22T14:12:17;34.00;68.20
7307;DHT22;3694;48.732;9.248;2023-06-22T14:14:45;34.10;67.40
7307;DHT22;3694;48.732;9.248;2023-06-22T14:17:11;34.20;63.90
7307;DHT22;3694;48.732;9.248;2023-06-22T14:19:36;34.40;64.60
7307;DHT22;3694;48.732;9.248;2023-06-22T14:22:02;34.60;67.30
7307;DHT22;3694;48.732;9.248;2023-06-22T14:24:28;34.50;63.70
7307;DHT22;3694;48.732;9.248;2023-06-22T14:26:57;34.50;63.50
7307;DHT22;3694;48.732;9.248;2023-06-22T14:29:22;34.10;62.40
7307;DHT22;3694;48.732;9.248;2023-06-22T14:31:48;33.70;62.20
7307;DHT22;3694;48.732;9.248;2023-06-22T14:34:15;33.50;62.40
7307;DHT22;3694;48.732;9.248;2023-06-22T14:36:41;33.40;61.80
7307;DHT22;3694;48.732;9.248;2023-06-22T14:39:07;33.70;62.50
7307;DHT22;3694;48.732;9.248;2023-06-22T14:41:32;34.00;61.20
7307;DHT22;3694;48.732;9.248;2023-06-22T14:43:58;34.70;61.90
7307;DHT22;3694;48.732;9.248;2023-06-22T14:46:24;35.40;61.60
7307;DHT22;3694;48.732;9.248;2023-06-22T14:48:49;35.50;61.20
7307;DHT22;3694;48.732;9.248;2023-06-22T14:51:15;35.30;60.60
7307;DHT22;3694;48.732;9.248;2023-06-22T14:53:43;34.70;59.30
7307;DHT22;3694;48.732;9.248;2023-06-22T14:56:09;34.30;58.40
7307;DHT22;3694;48.732;9.248;2023-06-22T14:58:34;34.40;57.10
7307;DHT22;3694;48.732;9.248;2023-06-22T15:01:02;34.60;58.00
7307;DHT22;3694;48.732;9.248;2023-06-22T15:03:28;34.40;53.60
7307;DHT22;3694;48.732;9.248;2023-06-22T15:05:55;33.60;52.10
7307;DHT22;3694;48.732;9.248;2023-06-22T15:08:22;33.20;52.30
7307;DHT22;3694;48.732;9.248;2023-06-22T15:10:48;32.70;52.30
7307;DHT22;3694;48.732;9.248;2023-06-22T15:13:13;32.40;52.10
7307;DHT22;3694;48.732;9.248;2023-06-22T15:15:39;32.30;52.40
7307;DHT22;3694;48.732;9.248;2023-06-22T15:18:05;32.50;52.00
7307;DHT22;3694;48.732;9.248;2023-06-22T15:20:31;32.60;53.10
7307;DHT22;3694;48.732;9.248;2023-06-22T15:22:57;32.60;53.10
7307;DHT22;3694;48.732;9.248;2023-06-22T15:25:23;32.40;52.30
7307;DHT22;3694;48.732;9.248;2023-06-22T15:27:48;32.20;51.90
7307;DHT22;3694;48.732;9.248;2023-06-22T15:30:14;32.10;51.70
7307;DHT22;3694;48.732;9.248;2023-06-22T15:32:43;31.90;52.10
7307;DHT22;3694;48.732;9.248;2023-06-22T15:35:11;31.50;51.10
7307;DHT22;3694;48.732;9.248;2023-06-22T15:37:37;31.40;51.80
7307;DHT22;3694;48.732;9.248;2023-06-22T15:40:03;31.10;52.30
7307;DHT22;3694;48.732;9.248;2023-06-22T15:42:29;30.90;52.60
7307;DHT22;3694;48.732;9.248;2023-06-22T15:44:55;30.90;53.30
7307;DHT22;3694;48.732;9.248;2023-06-22T15:47:21;31.10;53.60
7307;DHT22;3694;48.732;9.248;2023-06-22T15:49:50;31.20;53.20
7307;DHT22;3694;48.732;9.248;2023-06-22T15:52:17;31.10;53.00
7307;DHT22;3694;48.732;9.248;2023-06-22T15:54:45;31.40;53.00
7307;DHT22;3694;48.732;9.248;2023-06-22T15:57:11;31.50;52.40
7307;DHT22;3694;48.732;9.248;2023-06-22T15:59:40;31.80;52.90
7307;DHT22;3694;48.732;9.248;2023-06-22T16:02:06;31.90;52.60
7307;DHT22;3694;48.732;9.248;2023-06-22T16:04:32;31.70;51.80